Timeline UpdatesTrip UpdatesNews PostsPvt Posts♥♥Travel TipsAdmin PostsConv PostsFollowed PostsChat RequestsBlog PostsPNR Posts

Disclaimer
Search
 
 
Thu Nov 27, 2014 00:04:09 ISTHomeTrainsΣChainsAtlasPNRForumGalleryNewsFAQTripsMembersLoginFeedback
PNR Super Search

Ticket PNR Status Inquiry - PNR: 280-xxxxxxx (E-Ticket)

OLD STATUS

Status Last Updated on: Apr 29 2012 (7:18PM) IST

Date of Journey: Sun Apr 29, 2012   Class: Sleeper - SL   (Total Seats available for this Class/Quota: Avbl >113)
Passenger 1: S2,15/Coach Position:6 (Booking Status: RAC 14,GNWL)
Chart PREPARED

Delhi-Bareilly Passenger Slip/54078

Travel Time: 9h 45m    34 halts    Distance: 273 km    Avg Speed: 28 km/hr
Type: Passenger
Zone: NR/Northern
Departs @ 23:50 (Avg on time)
Platform# ???
SMTWTFS
Old Delhi Junction/DLI 
Arrives @ 09:35 +1 night (Avg 37m late)
Platform# ???
SMTWTFS
Bareilly Junction/BE 

34 halts. 47 intermediate Stations between Old Delhi Junction and Bareilly Junction

Show ALL intermediate Stations  Show Old Time-Table

#TrkCodeStation NameX/OArrivesAvgDepartsAvgHaltPFDay#KmSpeedElevZoneAddress
1/==/DLIOld Delhi Junction (16)»  -23:50+0--10.025219mNRNear Chandni Chowk Metro Station, Delhi NCT
2/==/DSAShahdara Junction (4)  00:08 00:05+000:10 00:07+02m226.328212mNRCircular Rd, Delhi NCT
3/==/VVBVivek Vihar (2)  00:12-00:14 00:13-2 1m--28.639209mNRJhilmil Industrial Area, Delhi NCT
4/==/SBBSahibabad Junction (5)  00:19 00:20+000:21+02 1m--213.215209mNRGhaziabad, Uttar Pradesh
5/==/GZBGhaziabad Junction (6)  00:47+000:50+03m2219.947217mNRGhaziabad, Uttar Pradesh
6%==%DSDasna (3)  01:07-01:09-2m1233.182216mNRHapur Rd, Uttar Pradesh
7%==%PKWPilkhua (3)  01:21 01:18+001:23+02 5m--245.535218mNRPilkhuwa, Uttar Pradesh
8%==%HPUHapur Junction (4)  01:42+001:47+05m2256.682214mNRHapur Jn., Uttar Pradesh
9%==%SMBLSimbhooli (2)O  02:02-02:04-2m--277.194217mNRSimbhauli, Uttar Pradesh
10%==%GMSGarhmuktesar (3)XO  02:13 02:10+002:15+02 5m--286.434218mNRGarhmukteshwar, Uttar Pradesh
11%==%GGBGarhmuktesar Bridge (1)  02:26 02:27-02:28-2 1m1293.349202mNRNH-24, Uttar Pradesh
12%==%GJLGajraula Junction (4)X  02:43 02:45+002:45 02:50+02 5m--2107.368211mNRGujraula, Uttar Pradesh
13%==%KFPRKafurpurXO  03:00-03:02-2m--2118.625215mNRRajabpur, Uttar Pradesh
14%==%AMROAmroha (3)X  03:33 03:30-03:35-2 5m12130.132217mNRAmroha, Uttar Pradesh
15%==%KIVKaialsa (2)X  03:47-03:49-2m--2136.545211mNRSH 78, Uttar Pradesh
16%==%HKPHakimpur (2)X  03:59-04:01-2m--2144.037204mNRSH 78, Uttar Pradesh
17%==%LDPLodipur Bishnupur (2)  04:08-04:10-2m--2148.321200mNRHarthala Station Rd, Uttar Pradesh
18%==%MBMoradabad Junction (7)X  04:45+5205:10 04:55+1:2225 10m42160.652201mNRMoradabad, Uttar Pradesh
19|--|MCVMacharya  05:23 05:08+1:5905:25 05:10+2:032m--2171.925195mNRKundarkhi, Uttar Pradesh
20|--|KDKundarkhi  05:40 05:26+1:5905:42 05:28+2:042m--2178.735198mNRKundarki, Uttar Pradesh
21|--|RJKRaja Ka Sahaspur  05:52 05:38+2:0405:54 05:40+2:082m--2184.523196mNRBilari, Uttar Pradesh
22|--|JRJJargaonX  06:04 05:55+2:0406:06 05:57+2:042m--2190.124190mNRChandausi, Uttar Pradesh
23|--|KZSKuakhera Halt  06:12 06:04-06:13 06:05-1m--2192.921194mNRChandausi, Uttar Pradesh
24|--|GTFGumthalX  06:24 06:13+2:0106:26 06:15+2:062m--2195.817192mNRRaja Ka Sahaspur, Uttar Pradesh
25|--|CHChandausi Junction (3)X  06:45+1:4006:55+1:3710m--2204.464193mNRChandausi, Uttar Pradesh
26|--|SSKASisarka  07:02+1:4607:04+1:452m--2211.847188mNRState Highway 43, Uttar Pradesh
27|--|AFRAsafpur  07:11 07:12+1:4207:13 07:14+1:422m--2218.038186mNRDist. Badaun, Uttar Pradesh
28|--|PRKEPurua Khera  07:20 07:22-07:22 07:23-2 1m--2223.246182mNRDist. Badaun, Uttar Pradesh
29|--|DUBDabtara (2)  07:33 07:30+1:4307:35+1:432 5m22228.629183mNRBisauli, Uttar Pradesh
30|--|KEGKarengi  07:45 07:46+1:4107:47 07:48+1:422m--2233.942183mNRKarengi, Uttar Pradesh
31|--|RBKReoti B Khera (1)  07:55 07:58-07:57 07:59-2 1m12240.957177mNRReoti B Khera, Uttar Pradesh
32|--|AOAonla (2)  08:08 08:05+1:4908:10+1:482 5m--2246.531176mNRDist. Bareilly, Uttar Pradesh
33|--|NSUNisui  08:21 08:23-08:23 08:24-2 1m--2253.247167mNRAonla- Bareilly Link Rd, Uttar Pradesh
34|--|BTGBasharatGanj  08:33 08:30+1:4908:35+1:482 5m--2257.926167mNRBareilly, Uttar Pradesh
35|--|RGBRamganga  08:58 08:56+1:4109:00 08:58+1:392m--2267.010170mNRState Highway 33, Uttar Pradesh
36|--|BEBareilly Junction (4)•  09:35+37---2273.5-174mNRBareilly, Uttar Pradesh
Scroll to Top
Scroll to Bottom